Time;durP1;ratioP1;P1;durP2;ratioP2;P2;SDS_P1;SDS_P2;PMS_P1;PMS_P2;Temp;Humidity;BMP_temperature;BMP_pressure;BME280_temperature;BME280_humidity;BME280_pressure;Samples;Min_cycle;Max_cycle;Signal;HPM_P1;HPM_P2
2022/01/07 00:00:00;;;;;;;;;;;2.40;99.90;3.00;100073.00;;;;421785;23;97190;-89
2022/01/07 00:00:17;;;;;;;;;;;2.40;99.90;3.00;100079.00;;;;423200;23;83279;-90
2022/01/07 00:00:29;;;;;;;;;;;2.40;99.90;3.00;100080.00;;;;424259;22;96217;-90
2022/01/07 00:00:42;;;;;;;;;;;2.40;99.90;3.00;100084.00;;;;425301;22;83311;-90
2022/01/07 00:00:55;;;;;;;;;;;2.40;99.90;2.90;100075.00;;;;424276;22;96682;-90
2022/01/07 00:01:07;;;;;;;;;;;2.40;99.90;2.80;100077.00;;;;422754;23;83364;-90
2022/01/07 00:01:19;;;;;;;;;;;2.40;99.90;3.00;100069.00;;;;424291;22;96015;-89
2022/01/07 00:01:31;;;;;;;;;;;2.40;99.90;3.00;100080.00;;;;425253;22;83388;-90
2022/01/07 00:01:43;;;;;;;;;;;2.40;99.90;3.10;100076.00;;;;421727;23;96694;-90
2022/01/07 00:01:55;;;;;;;;;;;2.40;99.90;3.10;100070.00;;;;425355;22;83251;-90
2022/01/07 00:02:07;;;;;;;;;;;2.40;99.90;3.10;100081.00;;;;422172;23;95565;-90
2022/01/07 00:02:19;;;;;;;;;;;2.40;99.90;3.00;100075.00;;;;422743;23;83223;-90
2022/01/07 00:02:31;;;;;;;;;;;2.40;99.90;3.00;100068.00;;;;421993;23;96435;-90
2022/01/07 00:02:48;;;;;;;;;;;2.40;99.90;2.90;100075.00;;;;424773;22;83288;-90
2022/01/07 00:03:01;;;;;;;;;;;2.40;99.90;3.00;100061.00;;;;421725;23;97449;-90
2022/01/07 00:03:14;;;;;;;;;;;2.40;99.90;3.00;100068.00;;;;424820;22;83351;-90
2022/01/07 00:03:26;;;;;;;;;;;2.40;99.90;3.00;100068.00;;;;424250;22;96528;-90
2022/01/07 00:03:38;;;;;;;;;;;2.40;99.90;3.00;100065.00;;;;423133;23;82291;-90
2022/01/07 00:03:51;;;;;;;;;;;2.40;99.90;3.00;100069.00;;;;426221;22;95903;-90
2022/01/07 00:04:03;;;;;;;;;;;2.40;99.90;2.90;100074.00;;;;424744;22;83290;-90
2022/01/07 00:04:15;;;;;;;;;;;2.30;99.90;2.90;100068.00;;;;423881;22;96164;-90
2022/01/07 00:04:27;;;;;;;;;;;2.30;99.90;2.90;100079.00;;;;429425;22;83136;-90
2022/01/07 00:04:39;;;;;;;;;;;2.30;99.90;2.90;100076.00;;;;419812;23;96517;-90
2022/01/07 00:04:50;;;;;;;;;;;2.30;99.90;3.00;100070.00;;;;424739;22;84064;-90
2022/01/07 00:05:02;;;;;;;;;;;2.30;99.90;3.00;100075.00;;;;423762;22;96196;-90
2022/01/07 00:05:14;;;;;;;;;;;2.30;99.90;2.90;100076.00;;;;425200;22;83414;-90
2022/01/07 00:05:26;;;;;;;;;;;2.30;99.90;2.90;100077.00;;;;422044;23;95815;-90
2022/01/07 00:05:38;;;;;;;;;;;2.30;99.90;3.00;100074.00;;;;424738;22;82477;-90
2022/01/07 00:05:50;;;;;;;;;;;2.30;99.90;3.00;100076.00;;;;424198;22;96195;-90
2022/01/07 00:06:01;;;;;;;;;;;2.30;99.90;3.00;100078.00;;;;422812;23;83380;-90
2022/01/07 00:06:13;;;;;;;;;;;2.30;99.90;3.00;100070.00;;;;424245;22;95510;-90
2022/01/07 00:06:25;;;;;;;;;;;2.30;99.90;3.00;100075.00;;;;425222;22;83367;-90
2022/01/07 00:06:37;;;;;;;;;;;2.30;99.90;3.00;100076.00;;;;424206;22;96460;-89
2022/01/07 00:06:49;;;;;;;;;;;2.30;99.90;3.00;100073.00;;;;425177;22;82481;-90
2022/01/07 00:07:00;;;;;;;;;;;2.30;99.90;2.90;100069.00;;;;424072;22;97673;-90
2022/01/07 00:07:12;;;;;;;;;;;2.30;99.90;3.00;100077.00;;;;424861;22;83355;-90
2022/01/07 00:07:24;;;;;;;;;;;2.30;99.90;2.90;100082.00;;;;422154;23;95359;-90
2022/01/07 00:07:36;;;;;;;;;;;2.30;99.90;2.90;100077.00;;;;424847;22;82467;-90
2022/01/07 00:07:48;;;;;;;;;;;2.30;99.90;2.90;100074.00;;;;426262;22;96693;-90
2022/01/07 00:08:00;;;;;;;;;;;2.30;99.90;2.80;100075.00;;;;424717;22;83457;-90
2022/01/07 00:08:11;;;;;;;;;;;2.30;99.90;3.00;100076.00;;;;422175;23;95910;-90
2022/01/07 00:08:23;;;;;;;;;;;2.30;99.90;2.90;100075.00;;;;423047;23;83887;-90
2022/01/07 00:08:35;;;;;;;;;;;2.30;99.90;2.80;100074.00;;;;422152;23;95506;-90
2022/01/07 00:08:47;;;;;;;;;;;2.30;99.90;2.90;100074.00;;;;420779;23;82525;-90
2022/01/07 00:08:59;;;;;;;;;;;2.30;99.90;3.10;100069.00;;;;421745;23;96817;-90
2022/01/07 00:09:10;;;;;;;;;;;2.30;99.90;3.00;100065.00;;;;421072;23;83305;-90
2022/01/07 00:09:22;;;;;;;;;;;2.30;99.90;3.00;100068.00;;;;423764;22;96751;-89
2022/01/07 00:09:36;;;;;;;;;;;2.30;99.90;3.00;100069.00;;;;422643;23;83338;-90
2022/01/07 00:09:48;;;;;;;;;;;2.30;99.90;3.00;100076.00;;;;422273;23;95222;-90
2022/01/07 00:10:00;;;;;;;;;;;2.30;99.90;2.90;100069.00;;;;424603;22;83375;-90
2022/01/07 00:10:13;;;;;;;;;;;2.30;99.90;2.90;100068.00;;;;423676;22;96027;-90
2022/01/07 00:10:25;;;;;;;;;;;2.30;99.90;2.80;100074.00;;;;426567;22;82549;-90
2022/01/07 00:10:37;;;;;;;;;;;2.30;99.90;2.80;100070.00;;;;423838;22;97026;-90
2022/01/07 00:10:49;;;;;;;;;;;2.30;99.90;2.80;100073.00;;;;423059;23;83412;-90
2022/01/07 00:11:01;;;;;;;;;;;2.30;99.90;2.80;100065.00;;;;424100;22;98390;-90
2022/01/07 00:11:13;;;;;;;;;;;2.30;99.90;2.80;100063.00;;;;425243;22;83201;-90
2022/01/07 00:11:24;;;;;;;;;;;2.30;99.90;2.70;100065.00;;;;422165;23;95688;-90
2022/01/07 00:11:36;;;;;;;;;;;2.30;99.90;2.70;100073.00;;;;422506;23;83225;-90
2022/01/07 00:11:48;;;;;;;;;;;2.30;99.90;2.80;100066.00;;;;424260;22;96625;-90
2022/01/07 00:12:00;;;;;;;;;;;2.20;99.90;2.80;100069.00;;;;421026;23;83272;-90
2022/01/07 00:12:12;;;;;;;;;;;2.20;99.90;2.80;100074.00;;;;422248;23;94036;-90
2022/01/07 00:12:23;;;;;;;;;;;2.20;99.90;3.00;100075.00;;;;422720;23;83474;-90
2022/01/07 00:12:35;;;;;;;;;;;2.20;99.90;3.10;100069.00;;;;422235;23;96591;-90
2022/01/07 00:12:47;;;;;;;;;;;2.30;99.90;3.10;100063.00;;;;427273;22;83233;-90
2022/01/07 00:13:03;;;;;;;;;;;2.30;99.90;3.10;100065.00;;;;422059;23;97185;-90
2022/01/07 00:13:14;;;;;;;;;;;2.30;99.90;3.00;100067.00;;;;421080;23;83360;-90
2022/01/07 00:13:26;;;;;;;;;;;2.30;99.90;3.10;100057.00;;;;427642;22;96891;-90
2022/01/07 00:13:38;;;;;;;;;;;2.30;99.90;3.20;100064.00;;;;425286;22;82335;-91
2022/01/07 00:13:50;;;;;;;;;;;2.30;99.90;3.20;100059.00;;;;422216;23;96715;-90
2022/01/07 00:14:02;;;;;;;;;;;2.30;99.90;3.20;100058.00;;;;427389;22;83379;-90
2022/01/07 00:14:13;;;;;;;;;;;2.30;99.90;3.20;100070.00;;;;425982;22;95583;-90
2022/01/07 00:14:25;;;;;;;;;;;2.40;99.90;3.10;100066.00;;;;420843;23;83262;-90
2022/01/07 00:14:38;;;;;;;;;;;2.30;99.90;3.00;100059.00;;;;424296;22;95164;-90
2022/01/07 00:14:49;;;;;;;;;;;2.30;99.90;3.00;100067.00;;;;422766;23;83218;-90
2022/01/07 00:15:03;;;;;;;;;;;2.30;99.90;3.00;100064.00;;;;421668;23;96395;-90
2022/01/07 00:15:16;;;;;;;;;;;2.30;99.90;3.00;100061.00;;;;424773;22;83287;-90
2022/01/07 00:15:28;;;;;;;;;;;2.30;99.90;3.00;100068.00;;;;426002;22;96766;-90
2022/01/07 00:15:40;;;;;;;;;;;2.30;99.90;3.00;100064.00;;;;423124;23;82325;-90
2022/01/07 00:15:54;;;;;;;;;;;2.30;99.90;3.00;100057.00;;;;419714;23;97619;-90
2022/01/07 00:16:06;;;;;;;;;;;2.30;99.90;3.10;100060.00;;;;427314;22;82535;-90
2022/01/07 00:16:18;;;;;;;;;;;2.30;99.90;3.10;100054.00;;;;425947;22;96965;-90
2022/01/07 00:16:30;;;;;;;;;;;2.30;99.90;3.00;100070.00;;;;426871;22;83296;-90
2022/01/07 00:16:41;;;;;;;;;;;2.30;99.90;2.90;100055.00;;;;424074;22;95423;-90
2022/01/07 00:16:53;;;;;;;;;;;2.30;99.90;2.90;100057.00;;;;425231;22;83285;-90
2022/01/07 00:17:05;;;;;;;;;;;2.30;99.90;2.80;100059.00;;;;427944;22;97229;-90
2022/01/07 00:17:17;;;;;;;;;;;2.30;99.90;2.90;100064.00;;;;422921;23;83811;-90
2022/01/07 00:17:28;;;;;;;;;;;2.30;99.90;3.00;100060.00;;;;422232;23;95530;-90
2022/01/07 00:17:40;;;;;;;;;;;2.30;99.90;2.90;100065.00;;;;422513;23;83411;-90
2022/01/07 00:17:52;;;;;;;;;;;2.30;99.90;2.80;100057.00;;;;423851;22;96565;-90
2022/01/07 00:18:04;;;;;;;;;;;2.30;99.90;2.80;100060.00;;;;423155;23;83424;-90
2022/01/07 00:18:16;;;;;;;;;;;2.30;99.90;2.80;100052.00;;;;424266;22;95104;-90
2022/01/07 00:18:27;;;;;;;;;;;2.30;99.90;2.90;100064.00;;;;425227;22;83231;-90
2022/01/07 00:18:44;;;;;;;;;;;2.30;99.90;3.00;100058.00;;;;424300;22;95862;-90
2022/01/07 00:18:56;;;;;;;;;;;2.20;99.90;2.90;100061.00;;;;423160;23;83384;-90
2022/01/07 00:19:08;;;;;;;;;;;2.30;99.90;2.70;100065.00;;;;424141;22;97135;-90
2022/01/07 00:19:20;;;;;;;;;;;2.30;99.90;2.80;100057.00;;;;422722;23;83097;-90
2022/01/07 00:19:32;;;;;;;;;;;2.20;99.90;2.70;100049.00;;;;423917;22;96618;-91
2022/01/07 00:19:43;;;;;;;;;;;2.20;99.90;2.70;100063.00;;;;420944;23;83345;-90
2022/01/07 00:19:56;;;;;;;;;;;2.20;99.90;2.70;100064.00;;;;424176;22;95395;-90
2022/01/07 00:20:11;;;;;;;;;;;2.20;99.90;2.60;100068.00;;;;424522;22;83482;-90
2022/01/07 00:20:23;;;;;;;;;;;2.20;99.90;2.70;100066.00;;;;424178;22;95625;-90
2022/01/07 00:20:35;;;;;;;;;;;2.20;99.90;2.70;100067.00;;;;425203;22;83314;-90
2022/01/07 00:20:46;;;;;;;;;;;2.20;99.90;2.70;100059.00;;;;422076;23;97006;-90
2022/01/07 00:20:58;;;;;;;;;;;2.20;99.90;2.80;100055.00;;;;423047;23;82345;-89
2022/01/07 00:21:11;;;;;;;;;;;2.20;99.90;2.80;100061.00;;;;423820;22;97608;-90
2022/01/07 00:21:23;;;;;;;;;;;2.20;99.90;2.70;100055.00;;;;425101;22;83303;-91
2022/01/07 00:21:35;;;;;;;;;;;2.20;99.90;2.80;100055.00;;;;424184;22;95483;-89
2022/01/07 00:21:47;;;;;;;;;;;2.20;99.90;2.90;100059.00;;;;423097;23;82428;-90
2022/01/07 00:21:59;;;;;;;;;;;2.20;99.90;2.90;100064.00;;;;422002;23;95668;-90
2022/01/07 00:22:11;;;;;;;;;;;2.20;99.90;2.80;100065.00;;;;420732;23;83340;-90
2022/01/07 00:22:23;;;;;;;;;;;2.20;99.90;2.80;100059.00;;;;419968;23;96576;-90
2022/01/07 00:22:38;;;;;;;;;;;2.20;99.90;2.70;100061.00;;;;425227;22;82454;-90
2022/01/07 00:22:50;;;;;;;;;;;2.20;99.90;2.60;100060.00;;;;422209;23;96668;-90
2022/01/07 00:23:01;;;;;;;;;;;2.20;99.90;2.60;100068.00;;;;425164;22;83367;-90
2022/01/07 00:23:13;;;;;;;;;;;2.20;99.90;2.60;100065.00;;;;424188;22;97300;-90
2022/01/07 00:23:25;;;;;;;;;;;2.20;99.90;2.60;100067.00;;;;427287;22;83266;-90
2022/01/07 00:23:37;;;;;;;;;;;2.20;99.90;2.60;100069.00;;;;425999;22;96257;-90
2022/01/07 00:23:49;;;;;;;;;;;2.10;99.90;2.60;100061.00;;;;422635;23;82536;-90
2022/01/07 00:24:01;;;;;;;;;;;2.10;99.90;2.50;100064.00;;;;419821;23;96089;-89
2022/01/07 00:24:12;;;;;;;;;;;2.10;99.90;2.60;100064.00;;;;426969;22;83261;-90
2022/01/07 00:24:24;;;;;;;;;;;2.10;99.90;2.60;100062.00;;;;422071;23;95309;-90
2022/01/07 00:24:38;;;;;;;;;;;2.10;99.90;2.60;100063.00;;;;424820;22;82334;-91
2022/01/07 00:24:50;;;;;;;;;;;2.10;99.90;2.50;100068.00;;;;424265;22;95414;-90
2022/01/07 00:25:02;;;;;;;;;;;2.10;99.90;2.50;100066.00;;;;422538;23;83350;-90
2022/01/07 00:25:14;;;;;;;;;;;2.10;99.90;2.60;100062.00;;;;422071;23;98036;-90
2022/01/07 00:25:26;;;;;;;;;;;2.10;99.90;2.60;100070.00;;;;422720;23;83415;-90
2022/01/07 00:25:38;;;;;;;;;;;2.10;99.90;2.60;100064.00;;;;421770;23;96527;-90
2022/01/07 00:25:50;;;;;;;;;;;2.10;99.90;2.50;100075.00;;;;427307;22;83166;-91
2022/01/07 00:26:02;;;;;;;;;;;2.10;99.90;2.50;100066.00;;;;424230;22;95337;-90
2022/01/07 00:26:14;;;;;;;;;;;2.10;99.90;2.60;100064.00;;;;423114;23;82529;-90
2022/01/07 00:26:26;;;;;;;;;;;2.10;99.90;2.60;100070.00;;;;420098;23;96272;-90
2022/01/07 00:26:38;;;;;;;;;;;2.00;99.90;2.60;100067.00;;;;425236;22;82395;-90
2022/01/07 00:26:50;;;;;;;;;;;2.00;99.90;2.60;100062.00;;;;422163;23;96509;-90
2022/01/07 00:27:01;;;;;;;;;;;2.00;99.90;2.60;100062.00;;;;423061;23;83432;-90
2022/01/07 00:27:33;;;;;;;;;;;2.00;99.90;2.80;100064.00;;;;421698;23;97405;-90
2022/01/07 00:27:45;;;;;;;;;;;2.10;99.90;2.70;100074.00;;;;420649;23;83320;-90
2022/01/07 00:27:57;;;;;;;;;;;2.10;99.90;2.70;100063.00;;;;426031;22;96635;-90
2022/01/07 00:28:09;;;;;;;;;;;2.00;99.90;2.60;100057.00;;;;424750;22;83112;-90
2022/01/07 00:28:20;;;;;;;;;;;2.10;99.90;2.60;100062.00;;;;421780;23;95391;-90
2022/01/07 00:28:32;;;;;;;;;;;2.00;99.90;2.60;100063.00;;;;425000;22;82394;-90
2022/01/07 00:28:44;;;;;;;;;;;2.00;99.90;2.60;100064.00;;;;422205;23;96346;-91
2022/01/07 00:28:56;;;;;;;;;;;2.00;99.90;2.60;100061.00;;;;423122;23;83265;-90
2022/01/07 00:29:07;;;;;;;;;;;2.10;99.90;2.60;100066.00;;;;421917;23;96008;-90
2022/01/07 00:29:19;;;;;;;;;;;2.10;99.90;2.60;100058.00;;;;424811;22;83262;-90
2022/01/07 00:29:31;;;;;;;;;;;2.00;99.90;2.60;100063.00;;;;422091;23;97405;-90
2022/01/07 00:29:43;;;;;;;;;;;2.00;99.90;2.50;100068.00;;;;424730;22;83278;-90
2022/01/07 00:29:57;;;;;;;;;;;2.00;99.90;2.50;100065.00;;;;424373;22;95489;-90
2022/01/07 00:30:11;;;;;;;;;;;2.00;99.90;2.50;100064.00;;;;427319;22;83333;-90
2022/01/07 00:30:23;;;;;;;;;;;2.00;99.90;2.50;100060.00;;;;428005;22;96797;-90
2022/01/07 00:30:36;;;;;;;;;;;2.00;99.90;2.50;100057.00;;;;423104;23;82397;-90
2022/01/07 00:30:48;;;;;;;;;;;2.00;99.90;2.50;100061.00;;;;419844;23;96742;-90
2022/01/07 00:31:00;;;;;;;;;;;2.00;99.90;2.60;100064.00;;;;420650;23;83376;-90
2022/01/07 00:31:12;;;;;;;;;;;2.00;99.90;2.60;100055.00;;;;421737;23;96864;-90
2022/01/07 00:31:24;;;;;;;;;;;2.00;99.90;2.60;100059.00;;;;422685;23;83106;-90
2022/01/07 00:31:36;;;;;;;;;;;2.00;99.90;2.50;100057.00;;;;421686;23;98025;-90
2022/01/07 00:31:48;;;;;;;;;;;2.00;99.90;2.60;100060.00;;;;423067;23;82502;-90
2022/01/07 00:32:00;;;;;;;;;;;2.00;99.90;2.60;100058.00;;;;422178;23;95259;-90
2022/01/07 00:32:11;;;;;;;;;;;2.00;99.90;2.50;100059.00;;;;423097;23;82256;-90
2022/01/07 00:32:24;;;;;;;;;;;2.00;99.90;2.50;100062.00;;;;423685;22;94204;-90
2022/01/07 00:32:35;;;;;;;;;;;2.00;99.90;2.50;100058.00;;;;425261;22;82362;-90
2022/01/07 00:32:47;;;;;;;;;;;2.00;99.90;2.50;100058.00;;;;422176;23;95824;-90
2022/01/07 00:33:00;;;;;;;;;;;2.00;99.90;2.50;100061.00;;;;425211;22;83341;-90
2022/01/07 00:33:12;;;;;;;;;;;2.00;99.90;2.50;100057.00;;;;421743;23;97034;-90
2022/01/07 00:33:23;;;;;;;;;;;2.00;99.90;2.50;100058.00;;;;427268;22;82311;-90
2022/01/07 00:33:35;;;;;;;;;;;2.00;99.90;2.40;100065.00;;;;422049;23;96081;-90
2022/01/07 00:33:47;;;;;;;;;;;1.90;99.90;2.40;100067.00;;;;421116;23;83278;-90
2022/01/07 00:33:59;;;;;;;;;;;1.90;99.90;2.40;100063.00;;;;421999;23;95314;-90
2022/01/07 00:34:10;;;;;;;;;;;1.90;99.90;2.40;100061.00;;;;424854;22;82274;-90
2022/01/07 00:34:22;;;;;;;;;;;1.90;99.90;2.40;100066.00;;;;424132;22;97230;-90
2022/01/07 00:34:34;;;;;;;;;;;1.90;99.90;2.40;100057.00;;;;425215;22;83296;-91
2022/01/07 00:34:46;;;;;;;;;;;1.90;99.90;2.50;100064.00;;;;424263;22;96286;-90
2022/01/07 00:34:57;;;;;;;;;;;1.90;99.90;2.50;100062.00;;;;425200;22;83263;-90
2022/01/07 00:35:09;;;;;;;;;;;1.90;99.90;2.50;100063.00;;;;425989;22;96594;-90
2022/01/07 00:35:22;;;;;;;;;;;1.90;99.90;2.50;100068.00;;;;425182;22;83415;-90
2022/01/07 00:35:34;;;;;;;;;;;1.90;99.90;2.50;100063.00;;;;420072;23;96380;-90
2022/01/07 00:35:46;;;;;;;;;;;1.90;99.90;2.50;100064.00;;;;424853;22;83200;-90
2022/01/07 00:35:59;;;;;;;;;;;1.90;99.90;2.50;100063.00;;;;421906;23;95918;-90
2022/01/07 00:36:11;;;;;;;;;;;1.90;99.90;2.50;100069.00;;;;424841;22;83295;-91
2022/01/07 00:36:22;;;;;;;;;;;1.90;99.90;2.50;100064.00;;;;424038;22;95472;-90
2022/01/07 00:36:34;;;;;;;;;;;1.90;99.90;2.50;100070.00;;;;421082;23;82358;-90
2022/01/07 00:36:46;;;;;;;;;;;1.90;99.90;2.50;100059.00;;;;422146;23;96378;-90
2022/01/07 00:36:58;;;;;;;;;;;1.90;99.90;2.60;100062.00;;;;422701;23;83236;-90
2022/01/07 00:37:11;;;;;;;;;;;1.90;99.90;2.50;100062.00;;;;422207;23;95766;-91
2022/01/07 00:37:23;;;;;;;;;;;1.90;99.90;2.60;100057.00;;;;425096;22;83315;-89
2022/01/07 00:37:35;;;;;;;;;;;1.90;99.90;2.70;100060.00;;;;424153;22;96588;-90
2022/01/07 00:37:47;;;;;;;;;;;1.90;99.90;2.60;100049.00;;;;423209;23;83285;-90
2022/01/07 00:37:59;;;;;;;;;;;1.90;99.90;2.70;100050.00;;;;426365;22;95211;-90
2022/01/07 00:38:11;;;;;;;;;;;1.90;99.90;2.80;100048.00;;;;425119;22;82411;-89
2022/01/07 00:38:23;;;;;;;;;;;2.00;99.90;2.80;100056.00;;;;421710;23;96580;-90
2022/01/07 00:38:35;;;;;;;;;;;1.90;99.90;2.80;100049.00;;;;423094;23;83341;-90
2022/01/07 00:38:46;;;;;;;;;;;2.00;99.90;2.70;100052.00;;;;422224;23;95343;-90
2022/01/07 00:38:58;;;;;;;;;;;2.00;99.90;2.80;100046.00;;;;424844;22;82443;-90
2022/01/07 00:39:10;;;;;;;;;;;2.00;99.90;2.80;100054.00;;;;424203;22;96881;-90
2022/01/07 00:39:22;;;;;;;;;;;2.00;99.90;2.80;100040.00;;;;422768;23;83333;-90
2022/01/07 00:39:34;;;;;;;;;;;2.00;99.90;2.80;100050.00;;;;424159;22;96592;-90
2022/01/07 00:39:47;;;;;;;;;;;2.00;99.90;2.80;100043.00;;;;422639;23;83384;-90
2022/01/07 00:39:59;;;;;;;;;;;2.00;99.90;2.70;100047.00;;;;423881;22;96915;-90
2022/01/07 00:40:16;;;;;;;;;;;2.00;99.90;2.60;100046.00;;;;422609;23;83276;-90
2022/01/07 00:40:28;;;;;;;;;;;2.00;99.90;2.60;100052.00;;;;423688;22;96318;-90
2022/01/07 00:40:40;;;;;;;;;;;2.00;99.90;2.60;100042.00;;;;422963;23;82349;-90
2022/01/07 00:40:52;;;;;;;;;;;2.00;99.90;2.80;100051.00;;;;424116;22;93070;-89
2022/01/07 00:41:03;;;;;;;;;;;2.00;99.90;2.80;100048.00;;;;424845;22;83353;-89
2022/01/07 00:41:15;;;;;;;;;;;2.00;99.90;2.70;100044.00;;;;423817;22;96020;-90
2022/01/07 00:41:27;;;;;;;;;;;2.10;99.90;2.70;100041.00;;;;425216;22;82467;-90
2022/01/07 00:41:39;;;;;;;;;;;2.00;99.90;2.80;100040.00;;;;421929;23;96330;-90
2022/01/07 00:41:51;;;;;;;;;;;2.10;99.90;2.90;100044.00;;;;423074;23;83205;-90
2022/01/07 00:42:03;;;;;;;;;;;2.00;99.90;2.80;100043.00;;;;422121;23;93804;-89
2022/01/07 00:42:14;;;;;;;;;;;2.10;99.90;2.80;100051.00;;;;425065;22;83304;-90
2022/01/07 00:42:27;;;;;;;;;;;2.00;99.90;2.80;100049.00;;;;421669;23;96515;-90
2022/01/07 00:42:38;;;;;;;;;;;2.00;99.90;2.90;100048.00;;;;412763;23;82488;-90
2022/01/07 00:42:51;;;;;;;;;;;2.10;99.90;2.90;100043.00;;;;423740;22;95257;-91
2022/01/07 00:43:03;;;;;;;;;;;2.00;99.90;2.80;100044.00;;;;425133;22;83278;-90
2022/01/07 00:43:14;;;;;;;;;;;2.10;99.90;2.80;100039.00;;;;422058;23;95490;-90
2022/01/07 00:43:26;;;;;;;;;;;2.10;99.90;2.80;100046.00;;;;423216;23;83394;-90
2022/01/07 00:43:38;;;;;;;;;;;2.10;99.90;2.80;100038.00;;;;424022;22;97462;-91
2022/01/07 00:43:50;;;;;;;;;;;2.10;99.90;2.80;100049.00;;;;424806;22;82516;-90
2022/01/07 00:44:03;;;;;;;;;;;2.10;99.90;2.80;100047.00;;;;425636;22;96295;-90
2022/01/07 00:44:15;;;;;;;;;;;2.10;99.90;2.80;100045.00;;;;424663;22;83432;-90
2022/01/07 00:44:27;;;;;;;;;;;2.10;99.90;2.70;100040.00;;;;422025;23;96014;-90
2022/01/07 00:44:39;;;;;;;;;;;2.10;99.90;2.60;100038.00;;;;423072;23;83123;-90
2022/01/07 00:44:51;;;;;;;;;;;2.10;99.90;2.60;100050.00;;;;422005;23;96533;-90
2022/01/07 00:45:03;;;;;;;;;;;2.10;99.90;2.60;100044.00;;;;423006;23;83395;-90
2022/01/07 00:45:15;;;;;;;;;;;2.00;99.90;2.60;100055.00;;;;426268;22;96439;-90
2022/01/07 00:45:27;;;;;;;;;;;2.00;99.90;2.60;100048.00;;;;423108;23;83274;-90
2022/01/07 00:45:39;;;;;;;;;;;2.10;99.90;2.60;100050.00;;;;421616;23;97017;-90
2022/01/07 00:45:51;;;;;;;;;;;2.10;99.90;2.60;100043.00;;;;421038;23;82392;-90
2022/01/07 00:46:02;;;;;;;;;;;2.00;99.90;2.70;100043.00;;;;421924;23;94971;-90
2022/01/07 00:46:14;;;;;;;;;;;2.00;99.90;2.70;100044.00;;;;422604;23;82580;-90
2022/01/07 00:46:26;;;;;;;;;;;2.00;99.90;2.70;100052.00;;;;421764;23;95385;-90
2022/01/07 00:46:38;;;;;;;;;;;2.00;99.90;2.70;100048.00;;;;422758;23;83320;-90
2022/01/07 00:46:50;;;;;;;;;;;2.00;99.90;2.60;100048.00;;;;421584;23;95174;-90
2022/01/07 00:47:02;;;;;;;;;;;2.00;99.90;2.60;100053.00;;;;422815;23;83372;-90
2022/01/07 00:47:15;;;;;;;;;;;2.00;99.90;2.60;100050.00;;;;419778;23;96707;-90
2022/01/07 00:47:27;;;;;;;;;;;2.00;99.90;2.60;100051.00;;;;423122;23;83335;-90
2022/01/07 00:47:39;;;;;;;;;;;2.00;99.90;2.50;100049.00;;;;424069;22;97688;-90
2022/01/07 00:47:53;;;;;;;;;;;2.00;99.90;2.50;100052.00;;;;420999;23;83042;-90
2022/01/07 00:48:05;;;;;;;;;;;2.00;99.90;2.50;100052.00;;;;426282;22;95263;-90
2022/01/07 00:48:17;;;;;;;;;;;2.00;99.90;2.50;100047.00;;;;424653;22;83367;-90
2022/01/07 00:48:29;;;;;;;;;;;2.00;99.90;2.60;100049.00;;;;426250;22;95905;-91
2022/01/07 00:48:40;;;;;;;;;;;2.00;99.90;2.60;100048.00;;;;422853;23;82395;-90
2022/01/07 00:48:52;;;;;;;;;;;2.00;99.90;2.60;100056.00;;;;424151;22;95467;-90
2022/01/07 00:49:04;;;;;;;;;;;2.00;99.90;2.60;100052.00;;;;422682;23;83172;-90
2022/01/07 00:49:21;;;;;;;;;;;2.00;99.90;2.60;100049.00;;;;421631;23;96606;-90
2022/01/07 00:49:32;;;;;;;;;;;2.00;99.90;2.50;100045.00;;;;427103;22;83384;-90
2022/01/07 00:49:45;;;;;;;;;;;2.00;99.90;2.60;100051.00;;;;422011;23;96625;-90
2022/01/07 00:49:58;;;;;;;;;;;2.00;99.90;2.60;100051.00;;;;425278;22;82424;-90
2022/01/07 00:50:10;;;;;;;;;;;2.00;99.90;2.50;100048.00;;;;421621;23;96247;-90
2022/01/07 00:50:22;;;;;;;;;;;2.00;99.90;2.60;100050.00;;;;422902;23;83383;-91
2022/01/07 00:50:34;;;;;;;;;;;2.00;99.90;2.60;100043.00;;;;413460;23;95697;-90
2022/01/07 00:50:46;;;;;;;;;;;1.90;99.90;2.50;100040.00;;;;424783;22;83276;-90
2022/01/07 00:50:58;;;;;;;;;;;2.00;99.90;2.60;100048.00;;;;422048;23;96317;-90
2022/01/07 00:51:10;;;;;;;;;;;2.00;99.90;2.60;100054.00;;;;424583;22;83378;-90
2022/01/07 00:51:21;;;;;;;;;;;1.90;99.90;2.50;100054.00;;;;421826;23;96847;-91
2022/01/07 00:51:33;;;;;;;;;;;1.90;99.90;2.50;100047.00;;;;422984;23;83334;-90
2022/01/07 00:51:45;;;;;;;;;;;1.90;99.90;2.50;100049.00;;;;421979;23;96515;-90
2022/01/07 00:51:59;;;;;;;;;;;1.90;99.90;2.50;100056.00;;;;425157;22;82419;-90
2022/01/07 00:52:11;;;;;;;;;;;1.90;99.90;2.50;100052.00;;;;424217;22;95312;-90
2022/01/07 00:52:22;;;;;;;;;;;1.90;99.90;2.50;100048.00;;;;424646;22;82406;-90
2022/01/07 00:52:34;;;;;;;;;;;1.90;99.90;2.50;100048.00;;;;419568;23;96707;-90
2022/01/07 00:52:47;;;;;;;;;;;1.90;99.90;2.40;100044.00;;;;425033;22;83400;-90
2022/01/07 00:52:58;;;;;;;;;;;1.90;99.90;2.40;100045.00;;;;424087;22;96297;-90
2022/01/07 00:53:10;;;;;;;;;;;1.90;99.90;2.30;100050.00;;;;422991;23;83156;-90
2022/01/07 00:53:22;;;;;;;;;;;1.90;99.90;2.30;100043.00;;;;426141;22;95324;-91
2022/01/07 00:53:34;;;;;;;;;;;1.90;99.90;2.30;100041.00;;;;426761;22;82483;-91
2022/01/07 00:53:45;;;;;;;;;;;1.90;99.90;2.40;100055.00;;;;422011;23;96640;-90
2022/01/07 00:53:57;;;;;;;;;;;1.90;99.90;2.30;100047.00;;;;422713;23;82463;-90
2022/01/07 00:54:09;;;;;;;;;;;1.90;99.90;2.40;100050.00;;;;423643;22;96978;-90
2022/01/07 00:54:21;;;;;;;;;;;1.90;99.90;2.40;100044.00;;;;422993;23;83323;-91
2022/01/07 00:54:33;;;;;;;;;;;1.90;99.90;2.40;100056.00;;;;421805;23;96768;-90
2022/01/07 00:54:45;;;;;;;;;;;1.90;99.90;2.40;100050.00;;;;416275;23;83318;-90
2022/01/07 00:54:57;;;;;;;;;;;1.90;99.90;2.40;100050.00;;;;417627;23;96336;-90
2022/01/07 00:55:09;;;;;;;;;;;1.90;99.90;2.40;100049.00;;;;425118;22;83412;-90
2022/01/07 00:55:20;;;;;;;;;;;1.80;99.90;2.30;100044.00;;;;421653;23;96763;-90
2022/01/07 00:55:33;;;;;;;;;;;1.90;99.90;2.30;100059.00;;;;421024;23;83258;-90
2022/01/07 00:55:44;;;;;;;;;;;1.80;99.90;2.40;100053.00;;;;421546;23;97967;-90
2022/01/07 00:55:56;;;;;;;;;;;1.80;99.90;2.40;100052.00;;;;425029;22;82443;-90
2022/01/07 00:56:08;;;;;;;;;;;1.80;99.90;2.50;100057.00;;;;422016;23;94777;-90
2022/01/07 00:56:20;;;;;;;;;;;1.80;99.90;2.50;100056.00;;;;427126;22;83269;-90
2022/01/07 00:56:32;;;;;;;;;;;1.80;99.90;2.50;100059.00;;;;426120;22;95503;-90
2022/01/07 00:56:44;;;;;;;;;;;1.80;99.90;2.40;100052.00;;;;424978;22;82408;-90
2022/01/07 00:56:55;;;;;;;;;;;1.80;99.90;2.30;100060.00;;;;425719;22;96734;-90
2022/01/07 00:57:07;;;;;;;;;;;1.80;99.90;2.30;100054.00;;;;422500;23;83263;-90
2022/01/07 00:57:19;;;;;;;;;;;1.80;99.90;2.30;100054.00;;;;426201;22;95901;-90
2022/01/07 00:57:31;;;;;;;;;;;1.80;99.90;2.30;100050.00;;;;424836;22;82360;-90
2022/01/07 00:57:43;;;;;;;;;;;1.80;99.90;2.30;100062.00;;;;426024;22;96833;-90
2022/01/07 00:57:55;;;;;;;;;;;1.80;99.90;2.30;100055.00;;;;420911;23;83239;-90
2022/01/07 00:58:07;;;;;;;;;;;1.80;99.90;2.30;100049.00;;;;426301;22;96539;-90
2022/01/07 00:58:18;;;;;;;;;;;1.80;99.90;2.30;100049.00;;;;423019;23;82432;-90
2022/01/07 00:58:30;;;;;;;;;;;1.80;99.90;2.30;100057.00;;;;422056;23;96014;-90
2022/01/07 00:58:42;;;;;;;;;;;1.80;99.90;2.30;100054.00;;;;422864;23;83330;-90
2022/01/07 00:58:54;;;;;;;;;;;1.80;99.90;2.40;100058.00;;;;419499;23;97679;-90
2022/01/07 00:59:06;;;;;;;;;;;1.80;99.90;2.30;100047.00;;;;422475;23;82359;-90
2022/01/07 00:59:18;;;;;;;;;;;1.70;99.90;2.30;100053.00;;;;419879;23;95403;-91
2022/01/07 00:59:29;;;;;;;;;;;1.80;99.90;2.30;100051.00;;;;422680;23;83209;-90
2022/01/07 00:59:42;;;;;;;;;;;1.80;99.90;2.30;100055.00;;;;421434;23;97266;-90
2022/01/07 00:59:53;;;;;;;;;;;1.80;99.90;2.30;100053.00;;;;426996;22;83300;-90
2022/01/07 01:00:09;;;;;;;;;;;1.70;99.90;2.30;100049.00;;;;426262;22;95750;-90
2022/01/07 01:00:22;;;;;;;;;;;1.80;99.90;2.30;100051.00;;;;422915;23;83302;-90
2022/01/07 01:00:33;;;;;;;;;;;1.80;99.90;2.30;100047.00;;;;424208;22;95857;-90
2022/01/07 01:00:45;;;;;;;;;;;1.80;99.90;2.30;100047.00;;;;422457;23;83536;-90
2022/01/07 01:00:57;;;;;;;;;;;1.80;99.90;2.30;100049.00;;;;426178;22;96493;-91